createdAt,value
2023-01-19T00:00:25.103Z,551.00
2023-01-19T00:01:25.007Z,551.00
2023-01-19T00:02:24.995Z,550.00
2023-01-19T00:03:24.925Z,552.00
2023-01-19T00:04:24.871Z,557.00
2023-01-19T00:05:24.852Z,559.00
2023-01-19T00:06:24.792Z,554.00
2023-01-19T00:07:24.742Z,549.00
2023-01-19T04:23:43.079Z,508.00
2023-01-19T04:24:43.039Z,508.00
2023-01-19T04:25:43.028Z,505.00
2023-01-19T04:26:43.009Z,509.00
2023-01-19T04:27:42.992Z,506.00
2023-01-19T04:28:42.992Z,508.00
2023-01-19T04:29:42.955Z,505.00
2023-01-19T04:30:42.938Z,504.00
2023-01-19T04:31:42.920Z,507.00
2023-01-19T04:32:42.908Z,506.00
2023-01-19T04:33:42.888Z,507.00
2023-01-19T04:34:42.865Z,509.00
2023-01-19T04:35:42.845Z,509.00
2023-01-19T04:36:42.835Z,508.00
2023-01-19T04:37:42.806Z,505.00
2023-01-19T04:38:42.808Z,503.00
2023-01-19T06:03:41.103Z,506.00
2023-01-19T06:04:41.001Z,505.00
2023-01-19T06:05:40.996Z,512.00
2023-01-19T06:06:40.961Z,509.00
2023-01-19T06:07:40.943Z,508.00
2023-01-19T06:08:40.928Z,504.00
2023-01-19T06:09:40.914Z,502.00
2023-01-19T06:10:40.907Z,512.00
2023-01-19T06:11:40.888Z,509.00
2023-01-19T06:12:40.996Z,505.00
2023-01-19T06:13:42.122Z,507.00
2023-01-19T06:14:40.867Z,513.00
2023-01-19T06:15:40.831Z,505.00
2023-01-19T06:17:40.803Z,506.00
2023-01-19T06:19:40.761Z,509.00
2023-01-19T06:20:40.734Z,507.00
2023-01-19T06:21:40.718Z,516.00
2023-01-19T06:22:40.706Z,594.00
2023-01-19T06:24:40.663Z,657.00
2023-01-19T06:25:40.632Z,630.00
2023-01-19T06:26:40.629Z,622.00
2023-01-19T06:27:40.609Z,611.00
2023-01-19T06:29:40.567Z,610.00
2023-01-19T06:30:40.608Z,611.00
2023-01-19T06:31:40.574Z,615.00
2023-01-19T06:32:40.518Z,616.00
2023-01-19T06:33:40.497Z,688.00
2023-01-19T06:34:40.479Z,661.00
2023-01-19T06:35:40.456Z,651.00
2023-01-19T06:36:40.442Z,653.00
2023-01-19T06:37:40.553Z,650.00
2023-01-19T06:38:40.416Z,647.00
2023-01-19T06:39:40.553Z,655.00
2023-01-19T06:40:40.373Z,656.00
2023-01-19T06:41:40.368Z,663.00
2023-01-19T06:42:40.341Z,660.00
2023-01-19T06:43:40.329Z,662.00
2023-01-19T06:44:40.554Z,664.00
2023-01-19T06:45:40.406Z,675.00
2023-01-19T06:46:40.309Z,666.00
2023-01-19T06:47:40.695Z,698.00
2023-01-19T06:48:40.278Z,708.00
2023-01-19T06:49:40.558Z,696.00
2023-01-19T06:50:40.182Z,710.00
2023-01-19T06:52:40.150Z,729.00
2023-01-19T06:54:40.109Z,745.00
2023-01-19T06:55:41.061Z,754.00
2023-01-19T06:57:40.013Z,747.00
2023-01-19T06:58:39.998Z,764.00
2023-01-19T06:59:40.786Z,790.00
2023-01-19T07:00:39.947Z,843.00
2023-01-19T07:01:40.083Z,897.00
2023-01-19T07:02:40.047Z,930.00
2023-01-19T07:03:40.062Z,940.00
2023-01-19T07:04:39.849Z,985.00
2023-01-19T07:05:39.828Z,1010.00
2023-01-19T07:06:55.420Z,1033.00
2023-01-19T07:07:40.092Z,1035.00
2023-01-19T07:09:39.741Z,1037.00
2023-01-19T07:11:22.287Z,1048.00
2023-01-19T07:11:39.687Z,1038.00
2023-01-19T07:12:40.063Z,1055.00
2023-01-19T07:13:39.636Z,1079.00
2023-01-19T07:14:39.797Z,1113.00
2023-01-19T07:15:39.603Z,1177.00
2023-01-19T07:16:39.609Z,1215.00
2023-01-19T07:17:39.571Z,1217.00
2023-01-19T07:19:39.489Z,1346.00
2023-01-19T07:20:39.472Z,1310.00
2023-01-19T07:23:39.388Z,1326.00
2023-01-19T07:24:39.358Z,1298.00
2023-01-19T07:25:39.409Z,1350.00
2023-01-19T07:26:39.307Z,1348.00
2023-01-19T07:27:39.651Z,1314.00
2023-01-19T07:28:39.287Z,1344.00
2023-01-19T07:29:39.320Z,1105.00
2023-01-19T07:30:39.415Z,947.00
2023-01-19T07:31:39.823Z,916.00
2023-01-19T07:32:39.189Z,825.00
2023-01-19T07:33:39.167Z,763.00
2023-01-19T07:34:39.231Z,736.00
2023-01-19T07:35:39.196Z,658.00
2023-01-19T07:36:39.220Z,634.00
2023-01-19T07:37:39.612Z,618.00
2023-01-19T07:38:39.622Z,608.00
2023-01-19T07:39:39.277Z,590.00
2023-01-19T07:40:39.274Z,570.00
2023-01-19T07:41:55.661Z,549.00
2023-01-19T07:43:39.391Z,550.00
2023-01-19T07:44:39.421Z,553.00
2023-01-19T07:45:39.830Z,564.00
2023-01-19T07:47:39.493Z,625.00
2023-01-19T07:48:39.472Z,626.00
2023-01-19T07:49:39.490Z,632.00
2023-01-19T07:50:39.631Z,651.00
2023-01-19T07:51:39.602Z,661.00
2023-01-19T07:53:42.841Z,680.00
2023-01-19T07:54:39.443Z,681.00
2023-01-19T07:55:39.433Z,692.00
2023-01-19T07:58:39.618Z,712.00
2023-01-19T08:00:39.401Z,844.00
2023-01-19T08:01:39.579Z,955.00
2023-01-19T08:02:39.362Z,997.00
2023-01-19T08:03:39.620Z,1015.00
2023-01-19T08:04:39.596Z,1033.00
2023-01-19T08:05:39.360Z,1046.00
2023-01-19T08:06:39.388Z,1064.00
2023-01-19T08:07:39.250Z,1087.00
2023-01-19T08:09:39.210Z,1117.00
2023-01-19T08:10:39.370Z,1127.00
2023-01-19T08:11:39.281Z,1146.00
2023-01-19T08:12:39.764Z,1168.00
2023-01-19T08:13:39.147Z,1190.00
2023-01-19T08:14:39.058Z,1171.00
2023-01-19T08:15:39.076Z,1184.00
2023-01-19T08:17:39.015Z,1224.00
2023-01-19T08:18:40.140Z,1224.00
2023-01-19T08:19:41.365Z,1220.00
2023-01-19T08:20:39.908Z,1269.00
2023-01-19T08:23:39.214Z,1247.00
2023-01-19T08:24:38.819Z,1248.00
2023-01-19T08:25:38.831Z,1254.00
2023-01-19T08:26:39.783Z,1266.00
2023-01-19T08:27:38.728Z,1289.00
2023-01-19T08:28:39.137Z,1309.00
2023-01-19T08:29:38.682Z,1339.00
2023-01-19T08:30:38.757Z,1374.00
2023-01-19T08:32:38.607Z,1434.00
2023-01-19T08:33:38.773Z,1429.00
2023-01-19T08:34:38.513Z,1427.00
2023-01-19T08:35:38.479Z,1392.00
2023-01-19T08:36:38.490Z,1370.00
2023-01-19T08:37:39.390Z,1465.00
2023-01-19T08:38:38.695Z,1506.00
2023-01-19T08:39:38.410Z,1577.00
2023-01-19T08:40:38.351Z,1595.00
2023-01-19T08:41:38.320Z,1627.00
2023-01-19T08:42:38.283Z,1641.00
2023-01-19T08:43:38.725Z,1651.00
2023-01-19T08:44:46.637Z,1667.00
2023-01-19T08:45:38.219Z,1668.00
2023-01-19T08:46:38.231Z,1650.00
2023-01-19T08:47:38.145Z,1634.00
2023-01-19T08:48:39.817Z,1631.00
2023-01-19T08:49:38.349Z,1649.00
2023-01-19T08:50:38.008Z,1678.00
2023-01-19T08:51:37.967Z,1692.00
2023-01-19T08:52:37.901Z,1713.00
2023-01-19T08:53:37.902Z,1739.00
2023-01-19T08:54:38.174Z,1738.00
2023-01-19T08:55:37.811Z,1727.00
2023-01-19T08:56:38.018Z,1753.00
2023-01-19T08:57:37.755Z,1734.00
2023-01-19T08:59:38.136Z,1741.00
2023-01-19T09:00:37.622Z,1742.00
2023-01-19T09:01:37.850Z,1744.00
2023-01-19T09:02:37.732Z,1760.00
2023-01-19T09:03:37.496Z,1766.00
2023-01-19T09:04:37.612Z,1774.00
2023-01-19T09:05:37.470Z,1777.00
2023-01-19T09:06:37.376Z,1780.00
2023-01-19T09:07:37.363Z,1788.00
2023-01-19T09:08:37.304Z,1788.00
2023-01-19T09:09:37.656Z,1785.00
2023-01-19T09:10:37.262Z,1785.00
2023-01-19T09:11:37.162Z,1798.00
2023-01-19T09:12:37.606Z,1789.00
2023-01-19T09:13:37.076Z,1781.00
2023-01-19T09:14:37.611Z,1809.00
2023-01-19T09:15:36.986Z,1811.00
2023-01-19T09:16:36.950Z,1795.00
2023-01-19T09:17:36.923Z,1784.00
2023-01-19T09:18:36.850Z,1801.00
2023-01-19T09:19:36.827Z,1804.00
2023-01-19T09:20:36.762Z,1818.00
2023-01-19T09:21:36.717Z,1803.00
2023-01-19T09:22:37.113Z,1804.00
2023-01-19T09:23:36.649Z,1828.00
2023-01-19T09:24:36.594Z,1831.00
2023-01-19T09:25:36.566Z,1827.00
2023-01-19T09:26:36.557Z,1846.00
2023-01-19T09:27:36.615Z,1828.00
2023-01-19T09:28:36.597Z,1832.00
2023-01-19T09:29:36.353Z,1843.00
2023-01-19T09:30:36.752Z,1841.00
2023-01-19T09:31:36.334Z,1851.00
2023-01-19T09:32:36.840Z,1862.00
2023-01-19T09:33:36.180Z,1915.00
2023-01-19T09:34:37.115Z,1912.00
2023-01-19T09:35:36.116Z,1893.00
2023-01-19T09:36:36.056Z,1909.00
2023-01-19T09:37:35.994Z,1914.00
2023-01-19T09:38:35.949Z,1912.00
2023-01-19T09:39:35.929Z,1921.00
2023-01-19T09:40:41.331Z,1947.00
2023-01-19T09:41:35.800Z,1948.00
2023-01-19T09:42:35.852Z,1948.00
2023-01-19T09:43:35.734Z,1919.00
2023-01-19T09:44:35.696Z,1929.00
2023-01-19T09:45:35.628Z,1897.00
2023-01-19T09:46:36.373Z,1887.00
2023-01-19T09:47:35.631Z,1885.00
2023-01-19T09:48:35.481Z,1879.00
2023-01-19T09:49:35.438Z,1864.00
2023-01-19T09:50:35.396Z,1850.00
2023-01-19T09:51:36.262Z,1832.00
2023-01-19T09:52:35.626Z,1816.00
2023-01-19T09:53:35.250Z,1817.00
2023-01-19T09:54:35.206Z,1783.00
2023-01-19T09:55:35.157Z,1792.00
2023-01-19T09:56:35.168Z,1782.00
2023-01-19T09:57:35.140Z,1771.00
2023-01-19T09:58:35.044Z,1767.00
2023-01-19T09:59:34.978Z,1753.00
2023-01-19T10:00:35.191Z,1748.00
2023-01-19T10:01:35.488Z,1733.00
2023-01-19T10:02:34.878Z,1725.00
2023-01-19T10:03:34.790Z,1719.00
2023-01-19T10:04:34.753Z,1692.00
2023-01-19T10:05:35.131Z,1698.00
2023-01-19T10:06:35.142Z,1680.00
2023-01-19T10:07:34.626Z,1674.00
2023-01-19T10:08:34.587Z,1670.00
2023-01-19T10:09:34.535Z,1662.00
2023-01-19T10:10:34.650Z,1649.00
2023-01-19T10:11:42.165Z,1644.00
2023-01-19T10:12:34.402Z,1645.00
2023-01-19T10:13:34.352Z,1646.00
2023-01-19T10:14:34.332Z,1618.00
2023-01-19T10:15:34.637Z,1638.00
2023-01-19T10:16:34.214Z,1627.00
2023-01-19T10:17:34.177Z,1594.00
2023-01-19T10:18:34.143Z,1595.00
2023-01-19T10:19:34.091Z,1596.00
2023-01-19T10:20:34.046Z,1566.00
2023-01-19T10:21:34.137Z,1560.00
2023-01-19T10:22:33.961Z,1560.00
2023-01-19T10:23:33.932Z,1557.00
2023-01-19T10:24:33.878Z,1548.00
2023-01-19T10:25:33.899Z,1546.00
2023-01-19T10:26:34.140Z,1541.00
2023-01-19T10:27:33.753Z,1533.00
2023-01-19T10:28:33.726Z,1527.00
2023-01-19T10:29:33.712Z,1516.00
2023-01-19T10:30:33.769Z,1501.00
2023-01-19T10:31:33.723Z,1501.00
2023-01-19T10:32:33.574Z,1502.00
2023-01-19T10:33:33.542Z,1492.00
2023-01-19T10:34:33.483Z,1477.00
2023-01-19T10:35:33.450Z,1472.00
2023-01-19T10:36:33.657Z,1475.00
2023-01-19T10:37:34.364Z,1474.00
2023-01-19T10:38:33.395Z,1466.00
2023-01-19T10:39:37.987Z,1459.00
2023-01-19T10:40:33.648Z,1461.00
2023-01-19T10:41:33.675Z,1461.00
2023-01-19T10:42:33.185Z,1463.00
2023-01-19T10:43:33.203Z,1453.00
2023-01-19T10:44:33.152Z,1440.00
2023-01-19T10:45:34.847Z,1439.00
2023-01-19T10:46:33.234Z,1439.00
2023-01-19T10:47:33.002Z,1442.00
2023-01-19T10:48:32.946Z,1441.00
2023-01-19T10:49:33.178Z,1418.00
2023-01-19T10:50:33.224Z,1440.00
2023-01-19T10:51:32.837Z,1422.00
2023-01-19T10:52:32.840Z,1428.00
2023-01-19T10:53:32.763Z,1412.00
2023-01-19T10:54:32.796Z,1407.00
2023-01-19T10:55:32.775Z,1392.00
2023-01-19T10:56:32.679Z,1395.00
2023-01-19T10:57:33.283Z,1393.00
2023-01-19T10:58:32.562Z,1393.00
2023-01-19T10:59:32.727Z,1379.00
2023-01-19T11:00:32.628Z,1389.00
2023-01-19T11:01:32.822Z,1376.00
2023-01-19T11:02:32.643Z,1383.00
2023-01-19T11:03:32.436Z,1371.00
2023-01-19T11:04:32.351Z,1352.00
2023-01-19T11:05:32.311Z,1356.00
2023-01-19T11:06:32.658Z,1363.00
2023-01-19T11:07:32.236Z,1353.00
2023-01-19T11:08:32.216Z,1351.00
2023-01-19T11:09:32.217Z,1351.00
2023-01-19T11:10:32.131Z,1351.00
2023-01-19T11:11:32.156Z,1356.00
2023-01-19T11:12:32.170Z,1338.00
2023-01-19T11:13:32.053Z,1337.00
2023-01-19T11:14:31.983Z,1329.00
2023-01-19T11:15:31.942Z,1326.00
2023-01-19T11:16:32.224Z,1318.00
2023-01-19T11:17:31.871Z,1321.00
2023-01-19T11:18:31.872Z,1320.00
2023-01-19T11:19:31.784Z,1326.00
2023-01-19T11:20:31.750Z,1316.00
2023-01-19T11:21:32.192Z,1324.00
2023-01-19T11:22:31.693Z,1319.00
2023-01-19T11:23:31.634Z,1313.00
2023-01-19T11:24:31.596Z,1332.00
2023-01-19T11:25:31.563Z,1308.00
2023-01-19T11:26:31.694Z,1301.00
2023-01-19T11:27:31.738Z,1317.00
2023-01-19T11:28:31.475Z,1407.00
2023-01-19T11:29:31.438Z,1320.00
2023-01-19T11:30:31.359Z,1398.00
2023-01-19T11:31:31.714Z,1390.00
2023-01-19T11:32:33.155Z,1331.00
2023-01-19T11:33:31.266Z,1362.00
2023-01-19T11:34:31.351Z,1411.00
2023-01-19T11:35:31.300Z,1345.00
2023-01-19T11:36:31.353Z,1371.00
2023-01-19T11:37:31.476Z,1361.00
2023-01-19T11:38:31.312Z,1366.00
2023-01-19T11:39:31.248Z,1354.00
2023-01-19T11:40:30.946Z,1386.00
2023-01-19T11:41:30.908Z,1378.00
2023-01-19T11:42:31.174Z,1516.00
2023-01-19T11:43:43.487Z,1440.00
2023-01-19T11:44:30.774Z,1443.00
2023-01-19T11:45:31.199Z,1448.00
2023-01-19T11:46:30.676Z,1440.00
2023-01-19T11:47:30.648Z,1448.00
2023-01-19T11:48:30.581Z,1524.00
2023-01-19T11:49:30.671Z,1494.00
2023-01-19T11:50:30.526Z,1445.00
2023-01-19T11:51:30.457Z,1466.00
2023-01-19T11:52:30.415Z,1521.00
2023-01-19T11:53:30.391Z,1476.00
2023-01-19T11:54:30.419Z,1527.00
2023-01-19T11:55:30.313Z,1599.00
2023-01-19T11:56:30.263Z,1506.00
2023-01-19T11:57:30.206Z,1542.00
2023-01-19T11:58:31.152Z,1565.00
2023-01-19T11:59:30.119Z,1571.00
2023-01-19T12:00:30.099Z,1550.00
2023-01-19T12:01:30.039Z,1566.00
2023-01-19T12:02:30.317Z,1754.00
2023-01-19T12:03:30.074Z,1681.00
2023-01-19T12:04:29.894Z,1655.00
2023-01-19T12:05:29.864Z,1625.00
2023-01-19T12:06:29.869Z,1601.00
2023-01-19T12:07:30.249Z,1591.00
2023-01-19T12:08:29.782Z,1594.00
2023-01-19T12:09:29.719Z,1612.00
2023-01-19T12:10:29.658Z,1614.00
2023-01-19T12:11:29.603Z,1619.00
2023-01-19T12:12:29.712Z,1628.00
2023-01-19T12:13:29.520Z,1618.00
2023-01-19T12:14:29.476Z,1633.00
2023-01-19T12:15:29.437Z,1629.00
2023-01-19T12:16:29.445Z,1634.00
2023-01-19T12:17:29.703Z,1646.00
2023-01-19T12:18:29.312Z,1637.00
2023-01-19T12:19:30.185Z,1635.00
2023-01-19T12:20:29.218Z,1643.00
2023-01-19T12:21:29.184Z,1640.00
2023-01-19T12:22:29.174Z,1637.00
2023-01-19T12:23:29.091Z,1669.00
2023-01-19T12:24:29.187Z,1676.00
2023-01-19T12:25:28.994Z,1688.00
2023-01-19T12:26:28.962Z,1707.00
2023-01-19T12:27:28.904Z,1707.00
2023-01-19T12:28:28.845Z,1732.00
2023-01-19T12:29:28.819Z,1772.00
2023-01-19T12:30:28.810Z,1799.00
2023-01-19T12:31:28.934Z,1807.00
2023-01-19T12:32:28.710Z,1813.00
2023-01-19T12:33:28.610Z,1809.00
2023-01-19T12:34:28.568Z,1817.00
2023-01-19T12:35:28.525Z,1828.00
2023-01-19T12:36:28.466Z,1831.00
2023-01-19T12:37:28.455Z,1824.00
2023-01-19T12:38:28.799Z,1863.00
2023-01-19T12:39:28.329Z,1874.00
2023-01-19T12:40:28.279Z,1900.00
2023-01-19T12:41:28.222Z,1912.00
2023-01-19T12:42:28.219Z,1904.00
2023-01-19T12:43:28.127Z,1916.00
2023-01-19T12:44:28.072Z,1943.00
2023-01-19T12:45:28.018Z,1937.00
2023-01-19T12:46:27.998Z,1950.00
2023-01-19T12:47:27.924Z,1993.00
2023-01-19T12:48:27.876Z,2000.00
2023-01-19T12:49:27.821Z,1751.00
2023-01-19T12:50:28.193Z,1554.00
2023-01-19T12:51:27.730Z,1434.00
2023-01-19T12:52:27.712Z,1345.00
2023-01-19T12:53:27.690Z,1305.00
2023-01-19T12:54:27.732Z,1218.00
2023-01-19T12:55:27.587Z,1188.00
2023-01-19T12:56:27.569Z,1116.00
2023-01-19T12:57:27.521Z,1064.00
2023-01-19T12:58:27.696Z,1057.00
2023-01-19T12:59:27.464Z,980.00
2023-01-19T13:00:27.442Z,908.00
2023-01-19T13:01:27.544Z,892.00
2023-01-19T13:02:27.463Z,855.00
2023-01-19T13:03:27.729Z,847.00
2023-01-19T13:04:27.353Z,806.00
2023-01-19T13:05:27.330Z,809.00
2023-01-19T13:06:27.695Z,802.00
2023-01-19T13:07:27.293Z,782.00
2023-01-19T13:08:27.695Z,748.00
2023-01-19T13:09:27.259Z,752.00
2023-01-19T13:10:27.256Z,913.00
2023-01-19T13:11:31.374Z,952.00
2023-01-19T13:12:27.185Z,954.00
2023-01-19T13:13:27.199Z,961.00
2023-01-19T13:14:27.233Z,977.00
2023-01-19T13:15:27.149Z,995.00
2023-01-19T13:16:27.199Z,1005.00
2023-01-19T13:17:27.061Z,1091.00
2023-01-19T13:18:27.230Z,1088.00
2023-01-19T13:19:27.148Z,1056.00
2023-01-19T13:20:26.969Z,1061.00
2023-01-19T13:21:26.935Z,1090.00
2023-01-19T13:22:27.221Z,1122.00
2023-01-19T13:23:26.868Z,1149.00
2023-01-19T13:24:26.816Z,1198.00
2023-01-19T13:25:26.783Z,1203.00
2023-01-19T13:26:27.242Z,1205.00
2023-01-19T13:27:26.692Z,1234.00
2023-01-19T13:28:26.660Z,1247.00
2023-01-19T13:29:26.618Z,1266.00
2023-01-19T13:30:26.630Z,1274.00
2023-01-19T13:31:26.809Z,1353.00
2023-01-19T13:32:26.499Z,1331.00
2023-01-19T13:33:26.474Z,1339.00
2023-01-19T13:34:26.428Z,1353.00
2023-01-19T13:35:26.394Z,1370.00
2023-01-19T13:36:26.345Z,1361.00
2023-01-19T13:37:26.313Z,1386.00
2023-01-19T13:38:26.283Z,1467.00
2023-01-19T13:39:26.217Z,1483.00
2023-01-19T13:40:26.350Z,1475.00
2023-01-19T13:41:26.140Z,1474.00
2023-01-19T13:42:26.146Z,1489.00
2023-01-19T13:43:26.066Z,1503.00
2023-01-19T13:44:25.998Z,1493.00
2023-01-19T13:45:25.951Z,1508.00
2023-01-19T13:46:25.941Z,1531.00
2023-01-19T13:47:25.863Z,1535.00
2023-01-19T13:48:26.292Z,1530.00
2023-01-19T13:49:25.757Z,1539.00
2023-01-19T13:50:25.709Z,1553.00
2023-01-19T13:51:25.657Z,1571.00
2023-01-19T13:52:25.713Z,1566.00
2023-01-19T13:53:27.203Z,1586.00
2023-01-19T13:54:25.654Z,1600.00
2023-01-19T13:55:25.606Z,1604.00
2023-01-19T13:56:25.595Z,1584.00
2023-01-19T13:57:29.780Z,1584.00
2023-01-19T13:58:25.456Z,1586.00
2023-01-19T13:59:25.411Z,1594.00
2023-01-19T14:00:25.349Z,1605.00
2023-01-19T14:01:28.675Z,1620.00
2023-01-19T14:02:25.469Z,1587.00
2023-01-19T14:03:25.240Z,1595.00
2023-01-19T14:04:25.201Z,1618.00
2023-01-19T14:05:25.138Z,1643.00
2023-01-19T14:06:25.102Z,1687.00
2023-01-19T14:07:25.858Z,1681.00
2023-01-19T14:08:25.226Z,1695.00
2023-01-19T14:09:24.902Z,1696.00
2023-01-19T14:10:25.254Z,1701.00
2023-01-19T14:11:24.852Z,1712.00
2023-01-19T14:12:24.743Z,1726.00
2023-01-19T14:13:24.759Z,1736.00
2023-01-19T14:14:24.651Z,1743.00
2023-01-19T14:15:24.583Z,1742.00
2023-01-19T14:16:24.773Z,1749.00
2023-01-19T14:17:24.481Z,1727.00
2023-01-19T14:18:24.440Z,1723.00
2023-01-19T14:19:24.465Z,1724.00
2023-01-19T14:20:24.318Z,1719.00
2023-01-19T14:21:24.747Z,1727.00
2023-01-19T14:22:24.194Z,1732.00
2023-01-19T14:23:24.210Z,1602.00
2023-01-19T14:24:24.125Z,1348.00
2023-01-19T14:25:24.046Z,1171.00
2023-01-19T14:26:24.001Z,1104.00
2023-01-19T14:27:23.961Z,1009.00
2023-01-19T14:28:23.934Z,961.00
2023-01-19T14:29:24.661Z,887.00
2023-01-19T14:30:23.919Z,816.00
2023-01-19T14:31:23.884Z,756.00
2023-01-19T14:32:23.829Z,709.00
2023-01-19T14:33:23.792Z,656.00
2023-01-19T14:34:23.775Z,647.00
2023-01-19T14:35:23.748Z,629.00
2023-01-19T14:36:23.727Z,623.00
2023-01-19T14:37:23.702Z,596.00
2023-01-19T14:38:23.732Z,590.00
2023-01-19T14:39:23.738Z,581.00
2023-01-19T14:40:23.644Z,571.00
2023-01-19T14:41:23.749Z,561.00
2023-01-19T14:42:23.621Z,551.00
2023-01-19T14:43:23.570Z,542.00
2023-01-19T14:44:23.551Z,539.00
2023-01-19T14:45:23.559Z,528.00
2023-01-19T14:46:23.768Z,521.00
2023-01-19T14:47:23.510Z,508.00
2023-01-19T14:48:23.481Z,500.00
2023-01-19T14:49:23.470Z,501.00
2023-01-19T14:50:26.696Z,509.00
2023-01-19T14:51:23.463Z,506.00
2023-01-19T14:52:23.460Z,492.00
2023-01-19T14:53:23.430Z,482.00
2023-01-19T14:54:23.412Z,471.00
2023-01-19T14:55:23.397Z,500.00
2023-01-19T14:56:23.393Z,521.00
2023-01-19T14:57:23.375Z,524.00
2023-01-19T14:58:23.351Z,538.00
2023-01-19T14:59:23.415Z,554.00
2023-01-19T15:00:23.316Z,569.00
2023-01-19T15:01:23.950Z,570.00
2023-01-19T15:02:23.314Z,578.00
2023-01-19T15:03:26.835Z,601.00
2023-01-19T15:04:23.198Z,602.00
2023-01-19T15:05:23.270Z,604.00
2023-01-19T15:06:23.122Z,609.00
2023-01-19T15:07:23.108Z,627.00
2023-01-19T15:08:23.062Z,643.00
2023-01-19T15:09:23.033Z,659.00
2023-01-19T15:10:22.983Z,662.00
2023-01-19T15:11:22.946Z,697.00
2023-01-19T15:12:22.906Z,708.00
2023-01-19T15:13:22.873Z,729.00
2023-01-19T15:14:22.838Z,741.00
2023-01-19T15:15:22.818Z,771.00
2023-01-19T15:16:22.783Z,798.00
2023-01-19T15:17:22.723Z,789.00
2023-01-19T15:18:22.658Z,819.00
2023-01-19T15:19:23.172Z,844.00
2023-01-19T15:20:22.745Z,852.00
2023-01-19T15:21:22.524Z,838.00
2023-01-19T15:22:22.474Z,853.00
2023-01-19T15:23:22.429Z,879.00
2023-01-19T15:24:22.745Z,900.00
2023-01-19T15:25:22.338Z,920.00
2023-01-19T15:26:22.279Z,920.00
2023-01-19T15:27:22.234Z,947.00
2023-01-19T15:28:22.186Z,960.00
2023-01-19T15:29:22.145Z,965.00
2023-01-19T15:30:22.169Z,991.00
2023-01-19T15:31:22.096Z,997.00
2023-01-19T15:32:21.985Z,1015.00
2023-01-19T15:33:21.992Z,1032.00
2023-01-19T15:34:21.893Z,1040.00
2023-01-19T15:35:21.873Z,1070.00
2023-01-19T15:36:21.820Z,1061.00
2023-01-19T15:37:21.758Z,1066.00
2023-01-19T15:38:21.715Z,1065.00
2023-01-19T15:39:21.673Z,1056.00
2023-01-19T15:40:21.786Z,1038.00
2023-01-19T15:41:23.332Z,1058.00
2023-01-19T15:42:21.536Z,1083.00
2023-01-19T15:43:21.486Z,1074.00
2023-01-19T15:44:21.444Z,1050.00
2023-01-19T15:45:21.907Z,1043.00
2023-01-19T15:46:21.365Z,1025.00
2023-01-19T15:47:21.330Z,1022.00
2023-01-19T15:48:21.290Z,1036.00
2023-01-19T15:49:21.359Z,1023.00
2023-01-19T15:50:21.191Z,990.00
2023-01-19T15:51:21.164Z,992.00
2023-01-19T15:52:21.107Z,1014.00
2023-01-19T15:53:21.081Z,1013.00
2023-01-19T15:54:21.034Z,1004.00
2023-01-19T15:55:20.993Z,1011.00
2023-01-19T15:56:20.973Z,995.00
2023-01-19T15:57:20.904Z,1005.00
2023-01-19T15:58:20.876Z,981.00
2023-01-19T15:59:20.825Z,989.00
2023-01-19T16:00:20.784Z,978.00
2023-01-19T16:01:20.901Z,976.00
2023-01-19T16:02:20.774Z,974.00
2023-01-19T16:03:20.666Z,966.00
2023-01-19T16:04:20.634Z,974.00
2023-01-19T16:05:21.593Z,980.00
2023-01-19T16:06:20.562Z,981.00
2023-01-19T16:07:20.536Z,959.00
2023-01-19T16:08:20.484Z,958.00
2023-01-19T16:09:20.440Z,932.00
2023-01-19T16:10:20.406Z,940.00
2023-01-19T16:11:20.375Z,944.00
2023-01-19T16:12:20.343Z,943.00
2023-01-19T16:13:20.304Z,938.00
2023-01-19T16:14:20.276Z,936.00
2023-01-19T16:15:20.247Z,942.00
2023-01-19T16:16:20.263Z,944.00
2023-01-19T16:17:20.177Z,928.00
2023-01-19T16:18:20.135Z,934.00
2023-01-19T16:19:20.087Z,951.00
2023-01-19T16:20:20.061Z,933.00
2023-01-19T16:21:20.329Z,922.00
2023-01-19T16:22:19.989Z,908.00
2023-01-19T16:23:19.963Z,891.00
2023-01-19T16:24:19.919Z,911.00
2023-01-19T16:25:19.885Z,889.00
2023-01-19T16:26:19.854Z,858.00
2023-01-19T16:27:19.809Z,899.00
2023-01-19T16:28:19.771Z,872.00
2023-01-19T16:29:19.749Z,859.00
2023-01-19T16:30:19.786Z,858.00
2023-01-19T16:31:19.699Z,850.00
2023-01-19T16:32:19.627Z,864.00
2023-01-19T16:33:19.598Z,861.00
2023-01-19T16:34:19.561Z,846.00
2023-01-19T16:35:19.548Z,848.00
2023-01-19T16:36:19.773Z,850.00
2023-01-19T16:37:19.481Z,854.00
2023-01-19T16:38:19.418Z,842.00
2023-01-19T16:39:19.374Z,841.00
2023-01-19T16:40:19.334Z,851.00
2023-01-19T16:41:19.310Z,828.00
2023-01-19T16:42:19.261Z,817.00
2023-01-19T16:43:19.219Z,815.00
2023-01-19T16:44:19.196Z,790.00
2023-01-19T16:45:19.151Z,797.00
2023-01-19T16:46:19.119Z,796.00
2023-01-19T16:47:19.069Z,785.00
2023-01-19T16:48:19.036Z,779.00
2023-01-19T16:49:19.013Z,784.00
2023-01-19T16:50:19.018Z,803.00
2023-01-19T16:51:18.938Z,784.00
2023-01-19T16:52:18.894Z,797.00
2023-01-19T16:53:17.896Z,777.00
2023-01-19T16:54:18.815Z,738.00
2023-01-19T16:55:18.783Z,772.00
2023-01-19T16:56:18.755Z,728.00
2023-01-19T16:57:18.706Z,736.00
2023-01-19T16:58:18.672Z,721.00
2023-01-19T16:59:18.639Z,744.00
2023-01-19T17:00:19.275Z,734.00
2023-01-19T17:01:20.151Z,740.00
2023-01-19T17:02:18.522Z,699.00
2023-01-19T17:03:18.488Z,715.00
2023-01-19T17:04:18.461Z,710.00
2023-01-19T17:05:18.417Z,698.00
2023-01-19T17:06:18.411Z,690.00
2023-01-19T17:07:19.206Z,687.00
2023-01-19T17:08:18.316Z,668.00
2023-01-19T17:09:18.308Z,714.00
2023-01-19T17:10:18.272Z,695.00
2023-01-19T17:11:18.218Z,1100.00
2023-01-19T17:12:18.201Z,781.00
2023-01-19T17:13:18.152Z,748.00
2023-01-19T17:14:18.132Z,657.00
2023-01-19T17:15:18.091Z,662.00
2023-01-19T17:16:18.093Z,696.00
2023-01-19T17:17:18.027Z,1150.00
2023-01-19T17:18:17.997Z,1440.00
2023-01-19T17:19:17.970Z,1599.00
2023-01-19T17:20:17.920Z,1133.00
2023-01-19T17:21:18.015Z,817.00
2023-01-19T17:22:17.883Z,1291.00
2023-01-19T17:23:17.821Z,865.00
2023-01-19T17:24:17.822Z,800.00
2023-01-19T17:25:17.774Z,816.00
2023-01-19T17:26:17.807Z,818.00
2023-01-19T17:27:17.706Z,793.00
2023-01-19T17:28:17.657Z,821.00
2023-01-19T17:29:17.703Z,779.00
2023-01-19T17:30:17.588Z,774.00
2023-01-19T17:31:17.761Z,762.00
2023-01-19T17:32:17.500Z,777.00
2023-01-19T17:33:17.464Z,751.00
2023-01-19T17:34:17.436Z,732.00
2023-01-19T17:35:17.396Z,767.00
2023-01-19T17:36:17.366Z,733.00
2023-01-19T17:37:17.332Z,760.00
2023-01-19T17:38:17.303Z,727.00
2023-01-19T17:39:17.272Z,713.00
2023-01-19T17:40:17.248Z,740.00
2023-01-19T17:41:17.247Z,714.00
2023-01-19T17:42:17.184Z,722.00
2023-01-19T17:43:17.165Z,726.00
2023-01-19T17:44:17.148Z,726.00
2023-01-19T17:45:17.111Z,712.00
2023-01-19T17:46:17.121Z,726.00
2023-01-19T17:47:17.052Z,709.00
2023-01-19T17:48:17.024Z,689.00
2023-01-19T17:49:17.015Z,665.00
2023-01-19T17:50:16.990Z,674.00
2023-01-19T17:51:16.988Z,670.00
2023-01-19T17:52:17.939Z,667.00
2023-01-19T17:53:16.898Z,659.00
2023-01-19T17:54:16.865Z,666.00
2023-01-19T17:55:16.832Z,687.00
2023-01-19T17:56:16.801Z,658.00
2023-01-19T17:57:16.800Z,675.00
2023-01-19T17:58:16.745Z,661.00
2023-01-19T17:59:16.718Z,666.00
2023-01-19T18:00:16.690Z,659.00
2023-01-19T18:01:16.772Z,662.00
2023-01-19T18:02:16.806Z,667.00
2023-01-19T18:03:16.615Z,659.00
2023-01-19T18:04:16.601Z,642.00
2023-01-19T18:05:16.561Z,661.00
2023-01-19T18:06:16.536Z,664.00
2023-01-19T18:07:16.521Z,657.00
2023-01-19T18:08:16.487Z,655.00
2023-01-19T18:09:16.458Z,651.00
2023-01-19T18:10:16.723Z,649.00
2023-01-19T18:11:16.409Z,654.00
2023-01-19T18:12:16.392Z,636.00
2023-01-19T18:13:16.389Z,649.00
2023-01-19T18:14:16.366Z,648.00
2023-01-19T18:15:17.060Z,641.00
2023-01-19T18:16:16.295Z,642.00
2023-01-19T18:17:16.269Z,642.00